sensor_id;sensor_type;location;lat;lon;timestamp;P1;durP1;ratioP1;P2;durP2;ratioP2
20067;SDS011;10194;50.824;7.134;2024-03-02T00:00:52;56.00;;;48.63;;
20067;SDS011;10194;50.824;7.134;2024-03-02T00:03:18;58.60;;;49.87;;
20067;SDS011;10194;50.824;7.134;2024-03-02T00:05:48;56.50;;;48.73;;
20067;SDS011;10194;50.824;7.134;2024-03-02T00:08:19;58.67;;;49.53;;
20067;SDS011;10194;50.824;7.134;2024-03-02T00:10:50;55.40;;;48.10;;
20067;SDS011;10194;50.824;7.134;2024-03-02T00:13:18;56.23;;;48.53;;
20067;SDS011;10194;50.824;7.134;2024-03-02T00:15:53;55.90;;;48.83;;
20067;SDS011;10194;50.824;7.134;2024-03-02T00:18:21;90.40;;;65.87;;
20067;SDS011;10194;50.824;7.134;2024-03-02T00:20:57;56.93;;;49.67;;
20067;SDS011;10194;50.824;7.134;2024-03-02T00:23:23;56.87;;;49.17;;
20067;SDS011;10194;50.824;7.134;2024-03-02T00:25:55;60.90;;;54.33;;
20067;SDS011;10194;50.824;7.134;2024-03-02T00:31:04;55.43;;;47.77;;
20067;SDS011;10194;50.824;7.134;2024-03-02T00:33:37;56.97;;;48.47;;
20067;SDS011;10194;50.824;7.134;2024-03-02T00:36:14;55.00;;;47.30;;
20067;SDS011;10194;50.824;7.134;2024-03-02T00:38:53;56.50;;;48.23;;
20067;SDS011;10194;50.824;7.134;2024-03-02T00:41:24;55.67;;;47.97;;
20067;SDS011;10194;50.824;7.134;2024-03-02T00:44:04;57.57;;;48.97;;
20067;SDS011;10194;50.824;7.134;2024-03-02T00:46:35;56.77;;;47.97;;
20067;SDS011;10194;50.824;7.134;2024-03-02T00:49:05;55.53;;;47.93;;
20067;SDS011;10194;50.824;7.134;2024-03-02T00:51:46;57.37;;;48.53;;
20067;SDS011;10194;50.824;7.134;2024-03-02T00:54:14;62.67;;;51.10;;
20067;SDS011;10194;50.824;7.134;2024-03-02T00:56:41;55.97;;;48.03;;
20067;SDS011;10194;50.824;7.134;2024-03-02T00:59:07;56.10;;;48.10;;
20067;SDS011;10194;50.824;7.134;2024-03-02T01:01:35;56.77;;;48.40;;
20067;SDS011;10194;50.824;7.134;2024-03-02T01:04:01;59.50;;;50.13;;
20067;SDS011;10194;50.824;7.134;2024-03-02T01:06:27;56.27;;;48.20;;
20067;SDS011;10194;50.824;7.134;2024-03-02T01:08:53;56.83;;;48.17;;
20067;SDS011;10194;50.824;7.134;2024-03-02T01:11:19;55.73;;;47.83;;
20067;SDS011;10194;50.824;7.134;2024-03-02T01:13:47;55.50;;;47.53;;
20067;SDS011;10194;50.824;7.134;2024-03-02T01:16:13;73.10;;;56.90;;
20067;SDS011;10194;50.824;7.134;2024-03-02T01:18:40;55.97;;;48.03;;
20067;SDS011;10194;50.824;7.134;2024-03-02T01:21:07;55.60;;;47.93;;
20067;SDS011;10194;50.824;7.134;2024-03-02T01:23:33;57.80;;;48.93;;
20067;SDS011;10194;50.824;7.134;2024-03-02T01:25:59;57.63;;;51.33;;
20067;SDS011;10194;50.824;7.134;2024-03-02T01:28:24;56.47;;;48.93;;
20067;SDS011;10194;50.824;7.134;2024-03-02T01:30:50;56.07;;;48.60;;
20067;SDS011;10194;50.824;7.134;2024-03-02T01:33:16;56.77;;;50.23;;
20067;SDS011;10194;50.824;7.134;2024-03-02T01:35:43;56.73;;;48.60;;
20067;SDS011;10194;50.824;7.134;2024-03-02T01:38:09;56.33;;;47.87;;
20067;SDS011;10194;50.824;7.134;2024-03-02T01:40:35;56.63;;;48.07;;
20067;SDS011;10194;50.824;7.134;2024-03-02T01:43:02;54.80;;;47.10;;
20067;SDS011;10194;50.824;7.134;2024-03-02T01:45:30;56.57;;;48.27;;
20067;SDS011;10194;50.824;7.134;2024-03-02T01:47:56;55.97;;;48.37;;
20067;SDS011;10194;50.824;7.134;2024-03-02T01:50:25;56.20;;;48.30;;
20067;SDS011;10194;50.824;7.134;2024-03-02T01:52:57;55.50;;;47.37;;
20067;SDS011;10194;50.824;7.134;2024-03-02T01:55:24;56.53;;;48.20;;
20067;SDS011;10194;50.824;7.134;2024-03-02T01:57:50;53.27;;;46.50;;
20067;SDS011;10194;50.824;7.134;2024-03-02T02:00:18;57.60;;;48.70;;
20067;SDS011;10194;50.824;7.134;2024-03-02T02:02:45;55.00;;;47.40;;
20067;SDS011;10194;50.824;7.134;2024-03-02T02:05:12;55.90;;;47.77;;
20067;SDS011;10194;50.824;7.134;2024-03-02T02:07:38;54.87;;;47.37;;
20067;SDS011;10194;50.824;7.134;2024-03-02T02:10:07;54.87;;;47.23;;
20067;SDS011;10194;50.824;7.134;2024-03-02T02:12:33;55.47;;;47.80;;
20067;SDS011;10194;50.824;7.134;2024-03-02T02:15:00;55.53;;;48.10;;
20067;SDS011;10194;50.824;7.134;2024-03-02T02:17:26;56.47;;;48.43;;
20067;SDS011;10194;50.824;7.134;2024-03-02T02:19:52;56.70;;;48.77;;
20067;SDS011;10194;50.824;7.134;2024-03-02T02:22:17;58.63;;;49.93;;
20067;SDS011;10194;50.824;7.134;2024-03-02T02:24:43;55.73;;;48.63;;
20067;SDS011;10194;50.824;7.134;2024-03-02T02:27:09;55.37;;;48.30;;
20067;SDS011;10194;50.824;7.134;2024-03-02T02:29:35;56.40;;;48.87;;
20067;SDS011;10194;50.824;7.134;2024-03-02T02:32:01;55.73;;;48.90;;
20067;SDS011;10194;50.824;7.134;2024-03-02T02:34:27;57.63;;;49.83;;
20067;SDS011;10194;50.824;7.134;2024-03-02T02:36:54;54.80;;;48.40;;
20067;SDS011;10194;50.824;7.134;2024-03-02T02:39:20;55.63;;;48.77;;
20067;SDS011;10194;50.824;7.134;2024-03-02T02:41:49;56.27;;;49.53;;
20067;SDS011;10194;50.824;7.134;2024-03-02T02:44:15;63.80;;;52.93;;
20067;SDS011;10194;50.824;7.134;2024-03-02T02:46:41;55.37;;;48.57;;
20067;SDS011;10194;50.824;7.134;2024-03-02T02:49:07;54.93;;;48.53;;
20067;SDS011;10194;50.824;7.134;2024-03-02T02:51:32;56.63;;;49.33;;
20067;SDS011;10194;50.824;7.134;2024-03-02T02:53:58;57.03;;;50.47;;
20067;SDS011;10194;50.824;7.134;2024-03-02T02:56:24;56.70;;;50.00;;
20067;SDS011;10194;50.824;7.134;2024-03-02T02:58:50;57.13;;;49.83;;
20067;SDS011;10194;50.824;7.134;2024-03-02T03:01:16;55.67;;;49.33;;
20067;SDS011;10194;50.824;7.134;2024-03-02T03:03:43;56.57;;;50.27;;
20067;SDS011;10194;50.824;7.134;2024-03-02T03:06:09;56.10;;;49.40;;
20067;SDS011;10194;50.824;7.134;2024-03-02T03:08:35;55.83;;;48.57;;
20067;SDS011;10194;50.824;7.134;2024-03-02T03:11:01;55.93;;;48.40;;
20067;SDS011;10194;50.824;7.134;2024-03-02T03:13:28;57.70;;;49.73;;
20067;SDS011;10194;50.824;7.134;2024-03-02T03:15:54;56.10;;;49.13;;
20067;SDS011;10194;50.824;7.134;2024-03-02T03:18:19;56.73;;;49.47;;
20067;SDS011;10194;50.824;7.134;2024-03-02T03:20:45;54.47;;;47.97;;
20067;SDS011;10194;50.824;7.134;2024-03-02T03:23:11;56.67;;;49.37;;
20067;SDS011;10194;50.824;7.134;2024-03-02T03:25:40;56.40;;;49.53;;
20067;SDS011;10194;50.824;7.134;2024-03-02T03:28:07;57.13;;;49.80;;
20067;SDS011;10194;50.824;7.134;2024-03-02T03:30:36;56.37;;;48.87;;
20067;SDS011;10194;50.824;7.134;2024-03-02T03:33:03;54.23;;;47.97;;
20067;SDS011;10194;50.824;7.134;2024-03-02T03:35:31;57.20;;;49.53;;
20067;SDS011;10194;50.824;7.134;2024-03-02T03:37:57;54.83;;;47.63;;
20067;SDS011;10194;50.824;7.134;2024-03-02T03:40:23;56.03;;;48.27;;
20067;SDS011;10194;50.824;7.134;2024-03-02T03:42:49;55.60;;;47.87;;
20067;SDS011;10194;50.824;7.134;2024-03-02T03:45:15;56.17;;;47.87;;
20067;SDS011;10194;50.824;7.134;2024-03-02T03:47:41;55.93;;;47.70;;
20067;SDS011;10194;50.824;7.134;2024-03-02T03:50:07;55.60;;;47.53;;
20067;SDS011;10194;50.824;7.134;2024-03-02T03:52:33;56.57;;;48.57;;
20067;SDS011;10194;50.824;7.134;2024-03-02T03:54:59;55.47;;;47.80;;
20067;SDS011;10194;50.824;7.134;2024-03-02T03:57:25;56.80;;;48.50;;
20067;SDS011;10194;50.824;7.134;2024-03-02T03:59:52;56.17;;;48.23;;
20067;SDS011;10194;50.824;7.134;2024-03-02T04:02:18;56.40;;;49.00;;
20067;SDS011;10194;50.824;7.134;2024-03-02T04:04:44;56.13;;;48.80;;
20067;SDS011;10194;50.824;7.134;2024-03-02T04:07:10;55.57;;;48.60;;
20067;SDS011;10194;50.824;7.134;2024-03-02T04:09:35;55.70;;;48.37;;
20067;SDS011;10194;50.824;7.134;2024-03-02T04:12:01;57.20;;;48.40;;
20067;SDS011;10194;50.824;7.134;2024-03-02T04:14:27;56.57;;;48.37;;
20067;SDS011;10194;50.824;7.134;2024-03-02T04:16:53;54.47;;;47.97;;
20067;SDS011;10194;50.824;7.134;2024-03-02T04:19:19;55.63;;;48.60;;
20067;SDS011;10194;50.824;7.134;2024-03-02T04:21:44;55.47;;;48.60;;
20067;SDS011;10194;50.824;7.134;2024-03-02T04:24:10;62.03;;;52.03;;
20067;SDS011;10194;50.824;7.134;2024-03-02T04:26:36;56.40;;;48.63;;
20067;SDS011;10194;50.824;7.134;2024-03-02T04:29:02;56.33;;;48.83;;
20067;SDS011;10194;50.824;7.134;2024-03-02T04:31:27;56.60;;;48.70;;
20067;SDS011;10194;50.824;7.134;2024-03-02T04:33:53;55.33;;;48.57;;
20067;SDS011;10194;50.824;7.134;2024-03-02T04:36:19;53.67;;;47.77;;
20067;SDS011;10194;50.824;7.134;2024-03-02T04:38:46;55.27;;;48.00;;
20067;SDS011;10194;50.824;7.134;2024-03-02T04:41:11;55.13;;;48.40;;
20067;SDS011;10194;50.824;7.134;2024-03-02T04:43:37;54.63;;;48.23;;
20067;SDS011;10194;50.824;7.134;2024-03-02T04:46:03;55.23;;;48.33;;
20067;SDS011;10194;50.824;7.134;2024-03-02T04:48:30;56.37;;;49.03;;
20067;SDS011;10194;50.824;7.134;2024-03-02T04:50:56;54.80;;;48.37;;
20067;SDS011;10194;50.824;7.134;2024-03-02T04:53:22;55.93;;;49.13;;
20067;SDS011;10194;50.824;7.134;2024-03-02T04:55:48;56.13;;;49.87;;
20067;SDS011;10194;50.824;7.134;2024-03-02T04:58:32;55.30;;;49.07;;
20067;SDS011;10194;50.824;7.134;2024-03-02T05:00:57;55.20;;;48.70;;
20067;SDS011;10194;50.824;7.134;2024-03-02T05:03:23;56.00;;;49.00;;
20067;SDS011;10194;50.824;7.134;2024-03-02T05:05:49;55.67;;;48.20;;
20067;SDS011;10194;50.824;7.134;2024-03-02T05:08:15;55.50;;;48.87;;
20067;SDS011;10194;50.824;7.134;2024-03-02T05:10:42;56.43;;;49.47;;
20067;SDS011;10194;50.824;7.134;2024-03-02T05:13:07;55.97;;;49.10;;
20067;SDS011;10194;50.824;7.134;2024-03-02T05:15:33;56.83;;;49.67;;
20067;SDS011;10194;50.824;7.134;2024-03-02T05:17:59;56.13;;;49.13;;
20067;SDS011;10194;50.824;7.134;2024-03-02T05:20:27;55.90;;;49.07;;
20067;SDS011;10194;50.824;7.134;2024-03-02T05:22:53;56.00;;;48.83;;
20067;SDS011;10194;50.824;7.134;2024-03-02T05:25:19;56.03;;;49.10;;
20067;SDS011;10194;50.824;7.134;2024-03-02T05:27:45;55.10;;;48.80;;
20067;SDS011;10194;50.824;7.134;2024-03-02T05:30:11;55.37;;;48.93;;
20067;SDS011;10194;50.824;7.134;2024-03-02T05:32:37;56.47;;;49.77;;
20067;SDS011;10194;50.824;7.134;2024-03-02T05:35:03;54.80;;;48.80;;
20067;SDS011;10194;50.824;7.134;2024-03-02T05:37:30;55.87;;;48.93;;
20067;SDS011;10194;50.824;7.134;2024-03-02T05:39:55;55.87;;;49.30;;
20067;SDS011;10194;50.824;7.134;2024-03-02T05:42:21;55.77;;;49.67;;
20067;SDS011;10194;50.824;7.134;2024-03-02T05:44:47;55.60;;;49.57;;
20067;SDS011;10194;50.824;7.134;2024-03-02T05:47:13;56.67;;;50.57;;
20067;SDS011;10194;50.824;7.134;2024-03-02T05:49:39;56.60;;;50.40;;
20067;SDS011;10194;50.824;7.134;2024-03-02T05:52:04;57.97;;;51.77;;
20067;SDS011;10194;50.824;7.134;2024-03-02T05:54:31;57.77;;;51.47;;
20067;SDS011;10194;50.824;7.134;2024-03-02T05:56:57;56.10;;;50.10;;
20067;SDS011;10194;50.824;7.134;2024-03-02T05:59:41;59.27;;;52.87;;
20067;SDS011;10194;50.824;7.134;2024-03-02T06:02:07;58.00;;;51.70;;
20067;SDS011;10194;50.824;7.134;2024-03-02T06:04:33;59.17;;;52.77;;
20067;SDS011;10194;50.824;7.134;2024-03-02T06:06:58;58.30;;;52.10;;
20067;SDS011;10194;50.824;7.134;2024-03-02T06:09:24;59.00;;;52.67;;
20067;SDS011;10194;50.824;7.134;2024-03-02T06:11:51;59.57;;;53.27;;
20067;SDS011;10194;50.824;7.134;2024-03-02T06:14:17;62.20;;;55.63;;
20067;SDS011;10194;50.824;7.134;2024-03-02T06:16:42;61.17;;;54.87;;
20067;SDS011;10194;50.824;7.134;2024-03-02T06:19:08;61.37;;;54.97;;
20067;SDS011;10194;50.824;7.134;2024-03-02T06:21:34;62.07;;;55.57;;
20067;SDS011;10194;50.824;7.134;2024-03-02T06:24:00;62.53;;;55.90;;
20067;SDS011;10194;50.824;7.134;2024-03-02T06:26:26;58.93;;;52.73;;
20067;SDS011;10194;50.824;7.134;2024-03-02T06:28:52;59.83;;;53.63;;
20067;SDS011;10194;50.824;7.134;2024-03-02T06:31:17;59.57;;;53.27;;
20067;SDS011;10194;50.824;7.134;2024-03-02T06:33:43;58.90;;;52.60;;
20067;SDS011;10194;50.824;7.134;2024-03-02T06:36:09;59.33;;;52.97;;
20067;SDS011;10194;50.824;7.134;2024-03-02T06:38:36;60.80;;;54.30;;
20067;SDS011;10194;50.824;7.134;2024-03-02T06:41:02;59.73;;;53.33;;
20067;SDS011;10194;50.824;7.134;2024-03-02T06:43:28;60.67;;;54.27;;
20067;SDS011;10194;50.824;7.134;2024-03-02T06:45:54;56.70;;;50.50;;
20067;SDS011;10194;50.824;7.134;2024-03-02T06:48:20;56.40;;;50.20;;
20067;SDS011;10194;50.824;7.134;2024-03-02T06:50:46;56.23;;;49.83;;
20067;SDS011;10194;50.824;7.134;2024-03-02T06:53:15;56.30;;;49.70;;
20067;SDS011;10194;50.824;7.134;2024-03-02T06:55:45;56.13;;;49.93;;
20067;SDS011;10194;50.824;7.134;2024-03-02T06:58:12;55.23;;;48.80;;
20067;SDS011;10194;50.824;7.134;2024-03-02T07:00:40;57.37;;;51.00;;
20067;SDS011;10194;50.824;7.134;2024-03-02T07:03:12;56.07;;;49.97;;
20067;SDS011;10194;50.824;7.134;2024-03-02T07:05:38;55.73;;;49.10;;
20067;SDS011;10194;50.824;7.134;2024-03-02T07:08:04;56.53;;;50.33;;
20067;SDS011;10194;50.824;7.134;2024-03-02T07:10:31;56.90;;;50.47;;
20067;SDS011;10194;50.824;7.134;2024-03-02T07:12:56;56.90;;;50.13;;
20067;SDS011;10194;50.824;7.134;2024-03-02T07:15:22;56.17;;;49.97;;
20067;SDS011;10194;50.824;7.134;2024-03-02T07:18:03;56.77;;;50.23;;
20067;SDS011;10194;50.824;7.134;2024-03-02T07:20:29;56.77;;;49.87;;
20067;SDS011;10194;50.824;7.134;2024-03-02T07:22:55;56.73;;;49.53;;
20067;SDS011;10194;50.824;7.134;2024-03-02T07:25:21;56.37;;;49.43;;
20067;SDS011;10194;50.824;7.134;2024-03-02T07:27:46;55.47;;;48.30;;
20067;SDS011;10194;50.824;7.134;2024-03-02T07:30:15;56.87;;;49.47;;
20067;SDS011;10194;50.824;7.134;2024-03-02T07:32:41;56.77;;;49.47;;
20067;SDS011;10194;50.824;7.134;2024-03-02T07:35:10;57.37;;;49.87;;
20067;SDS011;10194;50.824;7.134;2024-03-02T07:37:38;58.23;;;49.63;;
20067;SDS011;10194;50.824;7.134;2024-03-02T07:40:04;57.13;;;49.00;;
20067;SDS011;10194;50.824;7.134;2024-03-02T07:42:34;59.40;;;50.50;;
20067;SDS011;10194;50.824;7.134;2024-03-02T07:45:00;59.83;;;50.90;;
20067;SDS011;10194;50.824;7.134;2024-03-02T07:47:26;58.67;;;49.70;;
20067;SDS011;10194;50.824;7.134;2024-03-02T07:49:51;58.70;;;49.77;;
20067;SDS011;10194;50.824;7.134;2024-03-02T07:52:17;60.40;;;50.27;;
20067;SDS011;10194;50.824;7.134;2024-03-02T07:54:43;57.77;;;49.07;;
20067;SDS011;10194;50.824;7.134;2024-03-02T07:57:09;56.97;;;48.97;;
20067;SDS011;10194;50.824;7.134;2024-03-02T07:59:35;57.93;;;49.20;;
20067;SDS011;10194;50.824;7.134;2024-03-02T08:02:01;56.87;;;48.57;;
20067;SDS011;10194;50.824;7.134;2024-03-02T08:04:28;59.87;;;49.87;;
20067;SDS011;10194;50.824;7.134;2024-03-02T08:06:53;56.93;;;48.43;;
20067;SDS011;10194;50.824;7.134;2024-03-02T08:09:19;56.73;;;47.97;;
20067;SDS011;10194;50.824;7.134;2024-03-02T08:11:45;55.83;;;47.63;;
20067;SDS011;10194;50.824;7.134;2024-03-02T08:14:11;63.70;;;51.80;;
20067;SDS011;10194;50.824;7.134;2024-03-02T08:16:36;57.40;;;48.37;;
20067;SDS011;10194;50.824;7.134;2024-03-02T08:19:02;56.50;;;48.00;;
20067;SDS011;10194;50.824;7.134;2024-03-02T08:21:28;57.93;;;48.57;;
20067;SDS011;10194;50.824;7.134;2024-03-02T08:23:55;58.70;;;49.13;;
20067;SDS011;10194;50.824;7.134;2024-03-02T08:26:22;58.20;;;48.47;;
20067;SDS011;10194;50.824;7.134;2024-03-02T08:28:48;56.27;;;47.80;;
20067;SDS011;10194;50.824;7.134;2024-03-02T08:31:14;58.03;;;48.80;;
20067;SDS011;10194;50.824;7.134;2024-03-02T08:33:40;58.13;;;48.80;;
20067;SDS011;10194;50.824;7.134;2024-03-02T08:36:06;57.20;;;48.33;;
20067;SDS011;10194;50.824;7.134;2024-03-02T08:38:32;57.57;;;48.80;;
20067;SDS011;10194;50.824;7.134;2024-03-02T08:40:58;56.93;;;48.13;;
20067;SDS011;10194;50.824;7.134;2024-03-02T08:43:23;55.63;;;47.70;;
20067;SDS011;10194;50.824;7.134;2024-03-02T08:45:50;57.07;;;48.63;;
20067;SDS011;10194;50.824;7.134;2024-03-02T08:48:16;57.63;;;48.73;;
20067;SDS011;10194;50.824;7.134;2024-03-02T08:50:41;58.83;;;49.20;;
20067;SDS011;10194;50.824;7.134;2024-03-02T08:53:07;57.73;;;48.70;;
20067;SDS011;10194;50.824;7.134;2024-03-02T08:55:33;59.47;;;49.67;;
20067;SDS011;10194;50.824;7.134;2024-03-02T08:57:59;59.47;;;49.87;;
20067;SDS011;10194;50.824;7.134;2024-03-02T09:00:25;59.43;;;49.63;;
20067;SDS011;10194;50.824;7.134;2024-03-02T09:02:51;59.60;;;49.87;;
20067;SDS011;10194;50.824;7.134;2024-03-02T09:05:16;59.90;;;50.17;;
20067;SDS011;10194;50.824;7.134;2024-03-02T09:07:42;60.33;;;50.33;;
20067;SDS011;10194;50.824;7.134;2024-03-02T09:10:08;59.53;;;49.90;;
20067;SDS011;10194;50.824;7.134;2024-03-02T09:12:34;59.43;;;49.87;;
20067;SDS011;10194;50.824;7.134;2024-03-02T09:15:00;59.93;;;50.40;;
20067;SDS011;10194;50.824;7.134;2024-03-02T09:17:28;59.67;;;50.07;;
20067;SDS011;10194;50.824;7.134;2024-03-02T09:19:54;60.43;;;50.47;;
20067;SDS011;10194;50.824;7.134;2024-03-02T09:22:20;60.50;;;50.17;;
20067;SDS011;10194;50.824;7.134;2024-03-02T09:24:46;61.23;;;50.57;;
20067;SDS011;10194;50.824;7.134;2024-03-02T09:27:12;59.17;;;49.70;;
20067;SDS011;10194;50.824;7.134;2024-03-02T09:29:38;59.07;;;49.50;;
20067;SDS011;10194;50.824;7.134;2024-03-02T09:32:04;58.83;;;49.37;;
20067;SDS011;10194;50.824;7.134;2024-03-02T09:34:31;61.23;;;50.57;;
20067;SDS011;10194;50.824;7.134;2024-03-02T09:36:57;58.87;;;49.47;;
20067;SDS011;10194;50.824;7.134;2024-03-02T09:39:23;59.63;;;49.87;;
20067;SDS011;10194;50.824;7.134;2024-03-02T09:41:50;59.40;;;49.67;;
20067;SDS011;10194;50.824;7.134;2024-03-02T09:44:16;65.17;;;52.60;;
20067;SDS011;10194;50.824;7.134;2024-03-02T09:46:42;60.03;;;50.03;;
20067;SDS011;10194;50.824;7.134;2024-03-02T09:49:09;58.77;;;49.43;;
20067;SDS011;10194;50.824;7.134;2024-03-02T09:51:36;59.27;;;49.63;;
20067;SDS011;10194;50.824;7.134;2024-03-02T09:54:02;64.73;;;52.23;;
20067;SDS011;10194;50.824;7.134;2024-03-02T09:56:29;60.17;;;50.23;;
20067;SDS011;10194;50.824;7.134;2024-03-02T09:58:54;59.63;;;49.97;;
20067;SDS011;10194;50.824;7.134;2024-03-02T10:01:20;61.43;;;50.93;;
20067;SDS011;10194;50.824;7.134;2024-03-02T10:03:46;61.40;;;50.97;;
20067;SDS011;10194;50.824;7.134;2024-03-02T10:06:20;60.53;;;50.73;;
20067;SDS011;10194;50.824;7.134;2024-03-02T10:08:51;62.30;;;51.63;;
20067;SDS011;10194;50.824;7.134;2024-03-02T10:11:30;61.03;;;51.17;;
20067;SDS011;10194;50.824;7.134;2024-03-02T10:14:09;60.60;;;50.63;;
20067;SDS011;10194;50.824;7.134;2024-03-02T10:16:45;63.43;;;52.23;;
20067;SDS011;10194;50.824;7.134;2024-03-02T10:19:18;61.07;;;51.10;;
20067;SDS011;10194;50.824;7.134;2024-03-02T10:21:49;62.90;;;51.80;;
20067;SDS011;10194;50.824;7.134;2024-03-02T10:24:17;67.23;;;54.23;;
20067;SDS011;10194;50.824;7.134;2024-03-02T10:26:44;65.13;;;53.03;;
20067;SDS011;10194;50.824;7.134;2024-03-02T10:29:10;61.90;;;51.70;;
20067;SDS011;10194;50.824;7.134;2024-03-02T10:31:37;63.60;;;52.57;;
20067;SDS011;10194;50.824;7.134;2024-03-02T10:34:06;65.47;;;53.50;;
20067;SDS011;10194;50.824;7.134;2024-03-02T10:36:36;62.63;;;51.87;;
20067;SDS011;10194;50.824;7.134;2024-03-02T10:39:03;62.23;;;51.73;;
20067;SDS011;10194;50.824;7.134;2024-03-02T10:41:33;62.70;;;52.03;;
20067;SDS011;10194;50.824;7.134;2024-03-02T10:44:02;74.43;;;57.37;;
20067;SDS011;10194;50.824;7.134;2024-03-02T10:46:30;62.77;;;51.90;;
20067;SDS011;10194;50.824;7.134;2024-03-02T10:48:58;62.97;;;52.10;;
20067;SDS011;10194;50.824;7.134;2024-03-02T10:51:25;61.87;;;51.50;;
20067;SDS011;10194;50.824;7.134;2024-03-02T10:53:56;63.17;;;52.07;;
20067;SDS011;10194;50.824;7.134;2024-03-02T10:56:30;61.90;;;51.53;;
20067;SDS011;10194;50.824;7.134;2024-03-02T11:01:50;62.80;;;51.93;;
20067;SDS011;10194;50.824;7.134;2024-03-02T11:04:20;65.80;;;53.23;;
20067;SDS011;10194;50.824;7.134;2024-03-02T11:06:49;63.33;;;52.40;;
20067;SDS011;10194;50.824;7.134;2024-03-02T11:09:25;63.43;;;52.40;;
20067;SDS011;10194;50.824;7.134;2024-03-02T11:14:37;63.63;;;52.37;;
20067;SDS011;10194;50.824;7.134;2024-03-02T11:17:11;64.10;;;52.50;;
20067;SDS011;10194;50.824;7.134;2024-03-02T11:19:40;64.43;;;52.83;;
20067;SDS011;10194;50.824;7.134;2024-03-02T11:22:07;61.50;;;51.67;;
20067;SDS011;10194;50.824;7.134;2024-03-02T11:24:34;70.87;;;55.50;;
20067;SDS011;10194;50.824;7.134;2024-03-02T11:27:04;63.30;;;52.47;;
20067;SDS011;10194;50.824;7.134;2024-03-02T11:32:06;67.03;;;54.43;;
20067;SDS011;10194;50.824;7.134;2024-03-02T11:34:39;65.40;;;53.80;;
20067;SDS011;10194;50.824;7.134;2024-03-02T11:37:18;61.90;;;52.23;;
20067;SDS011;10194;50.824;7.134;2024-03-02T11:39:49;65.97;;;53.90;;
20067;SDS011;10194;50.824;7.134;2024-03-02T11:42:16;65.57;;;53.57;;
20067;SDS011;10194;50.824;7.134;2024-03-02T11:44:44;67.63;;;54.40;;
20067;SDS011;10194;50.824;7.134;2024-03-02T11:47:15;64.57;;;53.13;;
20067;SDS011;10194;50.824;7.134;2024-03-02T11:49:49;63.87;;;52.80;;
20067;SDS011;10194;50.824;7.134;2024-03-02T11:52:19;61.93;;;51.87;;
20067;SDS011;10194;50.824;7.134;2024-03-02T11:54:47;64.17;;;52.73;;
20067;SDS011;10194;50.824;7.134;2024-03-02T11:57:31;60.43;;;51.13;;
20067;SDS011;10194;50.824;7.134;2024-03-02T11:59:58;62.77;;;51.87;;
20067;SDS011;10194;50.824;7.134;2024-03-02T12:02:24;64.47;;;52.80;;
20067;SDS011;10194;50.824;7.134;2024-03-02T12:04:50;64.57;;;52.63;;
20067;SDS011;10194;50.824;7.134;2024-03-02T12:07:19;64.97;;;52.87;;
20067;SDS011;10194;50.824;7.134;2024-03-02T12:09:47;64.10;;;52.87;;
20067;SDS011;10194;50.824;7.134;2024-03-02T12:12:13;64.97;;;53.07;;
20067;SDS011;10194;50.824;7.134;2024-03-02T12:14:52;65.13;;;53.27;;
20067;SDS011;10194;50.824;7.134;2024-03-02T12:17:20;65.13;;;53.40;;
20067;SDS011;10194;50.824;7.134;2024-03-02T12:19:47;65.80;;;53.80;;
20067;SDS011;10194;50.824;7.134;2024-03-02T12:22:13;61.50;;;52.03;;
20067;SDS011;10194;50.824;7.134;2024-03-02T12:24:40;65.73;;;53.73;;
20067;SDS011;10194;50.824;7.134;2024-03-02T12:27:06;62.37;;;52.13;;
20067;SDS011;10194;50.824;7.134;2024-03-02T12:29:32;62.87;;;52.43;;
20067;SDS011;10194;50.824;7.134;2024-03-02T12:31:59;64.00;;;52.80;;
20067;SDS011;10194;50.824;7.134;2024-03-02T12:34:27;64.07;;;52.83;;
20067;SDS011;10194;50.824;7.134;2024-03-02T12:36:53;64.17;;;52.70;;
20067;SDS011;10194;50.824;7.134;2024-03-02T12:39:19;65.67;;;53.33;;
20067;SDS011;10194;50.824;7.134;2024-03-02T12:41:47;63.10;;;52.27;;
20067;SDS011;10194;50.824;7.134;2024-03-02T12:44:15;69.17;;;55.13;;
20067;SDS011;10194;50.824;7.134;2024-03-02T12:46:42;65.13;;;53.23;;
20067;SDS011;10194;50.824;7.134;2024-03-02T12:49:08;64.97;;;53.30;;
20067;SDS011;10194;50.824;7.134;2024-03-02T12:51:39;64.17;;;52.83;;
20067;SDS011;10194;50.824;7.134;2024-03-02T12:54:06;68.57;;;55.13;;
20067;SDS011;10194;50.824;7.134;2024-03-02T12:56:36;63.73;;;52.73;;
20067;SDS011;10194;50.824;7.134;2024-03-02T12:59:02;64.30;;;52.90;;
20067;SDS011;10194;50.824;7.134;2024-03-02T13:01:29;64.20;;;52.87;;
20067;SDS011;10194;50.824;7.134;2024-03-02T13:03:57;65.33;;;53.37;;
20067;SDS011;10194;50.824;7.134;2024-03-02T13:06:24;63.77;;;52.87;;
20067;SDS011;10194;50.824;7.134;2024-03-02T13:08:53;65.13;;;53.30;;
20067;SDS011;10194;50.824;7.134;2024-03-02T13:11:20;63.93;;;52.83;;
20067;SDS011;10194;50.824;7.134;2024-03-02T13:13:48;64.73;;;53.07;;
20067;SDS011;10194;50.824;7.134;2024-03-02T13:16:14;64.80;;;53.33;;
20067;SDS011;10194;50.824;7.134;2024-03-02T13:18:41;66.00;;;53.67;;
20067;SDS011;10194;50.824;7.134;2024-03-02T13:21:09;63.50;;;52.57;;
20067;SDS011;10194;50.824;7.134;2024-03-02T13:23:35;66.63;;;54.00;;
20067;SDS011;10194;50.824;7.134;2024-03-02T13:26:01;64.67;;;53.27;;
20067;SDS011;10194;50.824;7.134;2024-03-02T13:28:27;65.43;;;53.50;;
20067;SDS011;10194;50.824;7.134;2024-03-02T13:30:53;65.10;;;53.27;;
20067;SDS011;10194;50.824;7.134;2024-03-02T13:33:19;64.80;;;53.33;;
20067;SDS011;10194;50.824;7.134;2024-03-02T13:35:48;65.50;;;53.83;;
20067;SDS011;10194;50.824;7.134;2024-03-02T13:38:20;64.73;;;53.50;;
20067;SDS011;10194;50.824;7.134;2024-03-02T13:40:46;65.57;;;53.77;;
20067;SDS011;10194;50.824;7.134;2024-03-02T13:43:17;62.43;;;52.23;;
20067;SDS011;10194;50.824;7.134;2024-03-02T13:45:44;64.63;;;53.47;;
20067;SDS011;10194;50.824;7.134;2024-03-02T13:48:10;63.63;;;53.00;;
20067;SDS011;10194;50.824;7.134;2024-03-02T13:50:35;67.50;;;54.93;;
20067;SDS011;10194;50.824;7.134;2024-03-02T13:53:01;67.13;;;54.70;;
20067;SDS011;10194;50.824;7.134;2024-03-02T13:55:28;64.83;;;53.73;;
20067;SDS011;10194;50.824;7.134;2024-03-02T13:57:54;66.00;;;54.33;;
20067;SDS011;10194;50.824;7.134;2024-03-02T14:00:20;66.57;;;54.60;;
20067;SDS011;10194;50.824;7.134;2024-03-02T14:02:46;65.30;;;53.93;;
20067;SDS011;10194;50.824;7.134;2024-03-02T14:05:14;64.03;;;53.43;;
20067;SDS011;10194;50.824;7.134;2024-03-02T14:07:41;65.67;;;54.13;;
20067;SDS011;10194;50.824;7.134;2024-03-02T14:10:07;65.50;;;54.00;;
20067;SDS011;10194;50.824;7.134;2024-03-02T14:12:34;65.07;;;53.73;;
20067;SDS011;10194;50.824;7.134;2024-03-02T14:14:59;64.73;;;53.67;;
20067;SDS011;10194;50.824;7.134;2024-03-02T14:17:27;65.37;;;53.87;;
20067;SDS011;10194;50.824;7.134;2024-03-02T14:19:53;63.73;;;53.13;;
20067;SDS011;10194;50.824;7.134;2024-03-02T14:22:20;63.57;;;53.10;;
20067;SDS011;10194;50.824;7.134;2024-03-02T14:24:46;67.17;;;54.80;;
20067;SDS011;10194;50.824;7.134;2024-03-02T14:27:12;63.10;;;52.87;;
20067;SDS011;10194;50.824;7.134;2024-03-02T14:29:39;64.53;;;53.47;;
20067;SDS011;10194;50.824;7.134;2024-03-02T14:32:06;64.83;;;53.40;;